sensor_id;sensor_type;location;lat;lon;timestamp;temperature;humidity
33741;DHT22;20065;48.380;10.892;2023-06-19T00:01:24;21.90;95.10
33741;DHT22;20065;48.380;10.892;2023-06-19T00:04:10;21.80;94.30
33741;DHT22;20065;48.380;10.892;2023-06-19T00:06:59;21.60;95.00
33741;DHT22;20065;48.380;10.892;2023-06-19T00:09:48;21.70;95.20
33741;DHT22;20065;48.380;10.892;2023-06-19T00:12:35;21.80;95.50
33741;DHT22;20065;48.380;10.892;2023-06-19T00:15:22;21.80;95.90
33741;DHT22;20065;48.380;10.892;2023-06-19T00:18:15;21.80;96.20
33741;DHT22;20065;48.380;10.892;2023-06-19T00:21:04;21.80;96.20
33741;DHT22;20065;48.380;10.892;2023-06-19T00:23:52;21.70;95.80
33741;DHT22;20065;48.380;10.892;2023-06-19T00:26:38;21.70;94.50
33741;DHT22;20065;48.380;10.892;2023-06-19T00:29:26;21.80;94.50
33741;DHT22;20065;48.380;10.892;2023-06-19T00:32:14;21.80;94.60
33741;DHT22;20065;48.380;10.892;2023-06-19T00:35:01;21.80;94.40
33741;DHT22;20065;48.380;10.892;2023-06-19T00:37:49;21.70;93.90
33741;DHT22;20065;48.380;10.892;2023-06-19T00:40:35;21.80;93.90
33741;DHT22;20065;48.380;10.892;2023-06-19T00:43:28;21.80;95.00
33741;DHT22;20065;48.380;10.892;2023-06-19T00:46:40;21.80;95.80
33741;DHT22;20065;48.380;10.892;2023-06-19T00:49:46;21.80;94.70
33741;DHT22;20065;48.380;10.892;2023-06-19T00:56:41;21.70;93.60
33741;DHT22;20065;48.380;10.892;2023-06-19T00:59:30;21.70;93.80
33741;DHT22;20065;48.380;10.892;2023-06-19T01:02:17;21.70;93.60
33741;DHT22;20065;48.380;10.892;2023-06-19T01:05:03;21.80;94.30
33741;DHT22;20065;48.380;10.892;2023-06-19T01:10:49;21.70;93.60
33741;DHT22;20065;48.380;10.892;2023-06-19T01:13:45;21.60;93.70
33741;DHT22;20065;48.380;10.892;2023-06-19T01:16:34;21.60;93.70
33741;DHT22;20065;48.380;10.892;2023-06-19T01:19:21;21.60;93.90
33741;DHT22;20065;48.380;10.892;2023-06-19T01:22:08;21.50;93.90
33741;DHT22;20065;48.380;10.892;2023-06-19T01:24:55;21.50;94.00
33741;DHT22;20065;48.380;10.892;2023-06-19T01:27:41;21.50;93.90
33741;DHT22;20065;48.380;10.892;2023-06-19T01:30:31;21.50;94.00
33741;DHT22;20065;48.380;10.892;2023-06-19T01:33:26;21.50;94.00
33741;DHT22;20065;48.380;10.892;2023-06-19T01:36:14;21.60;94.00
33741;DHT22;20065;48.380;10.892;2023-06-19T01:39:00;21.60;94.00
33741;DHT22;20065;48.380;10.892;2023-06-19T01:41:47;21.60;94.20
33741;DHT22;20065;48.380;10.892;2023-06-19T01:44:33;21.60;94.30
33741;DHT22;20065;48.380;10.892;2023-06-19T01:47:20;21.60;94.80
33741;DHT22;20065;48.380;10.892;2023-06-19T01:50:08;21.70;95.00
33741;DHT22;20065;48.380;10.892;2023-06-19T01:52:55;21.70;94.60
33741;DHT22;20065;48.380;10.892;2023-06-19T01:55:41;21.70;95.00
33741;DHT22;20065;48.380;10.892;2023-06-19T01:58:27;21.70;95.70
33741;DHT22;20065;48.380;10.892;2023-06-19T02:01:13;21.70;96.00
33741;DHT22;20065;48.380;10.892;2023-06-19T02:04:00;21.70;95.90
33741;DHT22;20065;48.380;10.892;2023-06-19T02:06:46;21.70;95.90
33741;DHT22;20065;48.380;10.892;2023-06-19T02:09:32;21.70;96.10
33741;DHT22;20065;48.380;10.892;2023-06-19T02:12:18;21.70;95.50
33741;DHT22;20065;48.380;10.892;2023-06-19T02:15:05;21.70;95.70
33741;DHT22;20065;48.380;10.892;2023-06-19T02:17:51;21.70;95.40
33741;DHT22;20065;48.380;10.892;2023-06-19T02:20:40;21.70;95.40
33741;DHT22;20065;48.380;10.892;2023-06-19T02:23:26;21.70;95.40
33741;DHT22;20065;48.380;10.892;2023-06-19T02:26:13;22.20;95.60
33741;DHT22;20065;48.380;10.892;2023-06-19T02:28:59;21.60;95.80
33741;DHT22;20065;48.380;10.892;2023-06-19T02:31:45;21.70;95.70
33741;DHT22;20065;48.380;10.892;2023-06-19T02:34:31;21.60;96.10
33741;DHT22;20065;48.380;10.892;2023-06-19T02:37:18;21.60;95.90
33741;DHT22;20065;48.380;10.892;2023-06-19T02:40:05;21.60;96.20
33741;DHT22;20065;48.380;10.892;2023-06-19T02:42:52;21.40;96.20
33741;DHT22;20065;48.380;10.892;2023-06-19T02:45:38;21.30;96.50
33741;DHT22;20065;48.380;10.892;2023-06-19T02:48:25;21.30;96.60
33741;DHT22;20065;48.380;10.892;2023-06-19T02:51:11;21.40;97.00
33741;DHT22;20065;48.380;10.892;2023-06-19T02:53:57;21.40;97.00
33741;DHT22;20065;48.380;10.892;2023-06-19T02:56:43;21.30;96.80
33741;DHT22;20065;48.380;10.892;2023-06-19T02:59:29;21.30;96.80
33741;DHT22;20065;48.380;10.892;2023-06-19T03:02:15;21.20;97.00
33741;DHT22;20065;48.380;10.892;2023-06-19T03:05:02;21.10;97.20
33741;DHT22;20065;48.380;10.892;2023-06-19T03:07:49;21.10;97.40
33741;DHT22;20065;48.380;10.892;2023-06-19T03:10:35;21.00;97.40
33741;DHT22;20065;48.380;10.892;2023-06-19T03:13:21;21.20;97.90
33741;DHT22;20065;48.380;10.892;2023-06-19T03:16:07;21.30;97.50
33741;DHT22;20065;48.380;10.892;2023-06-19T03:18:53;21.20;97.50
33741;DHT22;20065;48.380;10.892;2023-06-19T03:21:42;21.30;98.10
33741;DHT22;20065;48.380;10.892;2023-06-19T03:24:29;21.30;98.30
33741;DHT22;20065;48.380;10.892;2023-06-19T03:27:27;21.30;98.50
33741;DHT22;20065;48.380;10.892;2023-06-19T03:30:15;21.30;98.60
33741;DHT22;20065;48.380;10.892;2023-06-19T03:33:05;21.30;98.60
33741;DHT22;20065;48.380;10.892;2023-06-19T03:36:01;21.00;98.20
33741;DHT22;20065;48.380;10.892;2023-06-19T03:39:13;20.80;98.60
33741;DHT22;20065;48.380;10.892;2023-06-19T03:42:00;20.60;98.90
33741;DHT22;20065;48.380;10.892;2023-06-19T03:44:47;20.60;99.10
33741;DHT22;20065;48.380;10.892;2023-06-19T03:47:33;20.70;99.20
33741;DHT22;20065;48.380;10.892;2023-06-19T03:50:20;20.80;99.40
33741;DHT22;20065;48.380;10.892;2023-06-19T03:53:06;20.90;99.10
33741;DHT22;20065;48.380;10.892;2023-06-19T03:55:52;20.90;99.10
33741;DHT22;20065;48.380;10.892;2023-06-19T03:58:38;20.60;99.20
33741;DHT22;20065;48.380;10.892;2023-06-19T04:01:24;20.50;99.20
33741;DHT22;20065;48.380;10.892;2023-06-19T04:04:11;20.40;99.10
33741;DHT22;20065;48.380;10.892;2023-06-19T04:06:57;20.40;99.30
33741;DHT22;20065;48.380;10.892;2023-06-19T04:09:45;20.30;99.40
33741;DHT22;20065;48.380;10.892;2023-06-19T04:12:31;20.30;99.40
33741;DHT22;20065;48.380;10.892;2023-06-19T04:15:17;20.40;99.50
33741;DHT22;20065;48.380;10.892;2023-06-19T04:18:03;20.60;99.50
33741;DHT22;20065;48.380;10.892;2023-06-19T04:20:50;20.70;99.50
33741;DHT22;20065;48.380;10.892;2023-06-19T04:23:36;20.80;99.30
33741;DHT22;20065;48.380;10.892;2023-06-19T04:26:22;20.80;99.30
33741;DHT22;20065;48.380;10.892;2023-06-19T04:29:10;20.90;99.60
33741;DHT22;20065;48.380;10.892;2023-06-19T04:32:02;20.70;99.10
33741;DHT22;20065;48.380;10.892;2023-06-19T04:34:56;20.70;99.40
33741;DHT22;20065;48.380;10.892;2023-06-19T04:37:43;20.70;99.40
33741;DHT22;20065;48.380;10.892;2023-06-19T04:40:29;20.60;99.50
33741;DHT22;20065;48.380;10.892;2023-06-19T04:43:15;20.50;99.70
33741;DHT22;20065;48.380;10.892;2023-06-19T04:46:01;20.40;99.70
33741;DHT22;20065;48.380;10.892;2023-06-19T04:48:50;20.50;99.90
33741;DHT22;20065;48.380;10.892;2023-06-19T04:51:37;20.40;99.90
33741;DHT22;20065;48.380;10.892;2023-06-19T04:54:23;20.50;99.90
33741;DHT22;20065;48.380;10.892;2023-06-19T04:57:09;20.60;99.60
33741;DHT22;20065;48.380;10.892;2023-06-19T04:59:56;20.90;99.90
33741;DHT22;20065;48.380;10.892;2023-06-19T05:02:42;21.00;99.90
33741;DHT22;20065;48.380;10.892;2023-06-19T05:05:30;21.00;99.40
33741;DHT22;20065;48.380;10.892;2023-06-19T05:08:17;21.00;99.40
33741;DHT22;20065;48.380;10.892;2023-06-19T05:11:03;21.00;99.40
33741;DHT22;20065;48.380;10.892;2023-06-19T05:13:49;21.00;99.50
33741;DHT22;20065;48.380;10.892;2023-06-19T05:16:35;21.00;99.40
33741;DHT22;20065;48.380;10.892;2023-06-19T05:19:22;20.90;99.50
33741;DHT22;20065;48.380;10.892;2023-06-19T05:22:08;20.80;99.60
33741;DHT22;20065;48.380;10.892;2023-06-19T05:24:54;20.70;99.80
33741;DHT22;20065;48.380;10.892;2023-06-19T05:27:40;20.70;99.90
33741;DHT22;20065;48.380;10.892;2023-06-19T05:30:26;20.60;99.90
33741;DHT22;20065;48.380;10.892;2023-06-19T05:33:12;20.50;99.90
33741;DHT22;20065;48.380;10.892;2023-06-19T05:36:02;20.60;99.90
33741;DHT22;20065;48.380;10.892;2023-06-19T05:38:48;20.60;99.90
33741;DHT22;20065;48.380;10.892;2023-06-19T05:41:34;20.60;99.90
33741;DHT22;20065;48.380;10.892;2023-06-19T05:44:20;20.60;99.90
33741;DHT22;20065;48.380;10.892;2023-06-19T05:47:06;20.60;99.90
33741;DHT22;20065;48.380;10.892;2023-06-19T05:49:52;20.70;99.90
33741;DHT22;20065;48.380;10.892;2023-06-19T05:52:38;20.80;99.90
33741;DHT22;20065;48.380;10.892;2023-06-19T05:55:28;20.90;99.90
33741;DHT22;20065;48.380;10.892;2023-06-19T05:58:14;20.80;99.90
33741;DHT22;20065;48.380;10.892;2023-06-19T06:01:01;20.90;99.90
33741;DHT22;20065;48.380;10.892;2023-06-19T06:03:48;20.80;99.90
33741;DHT22;20065;48.380;10.892;2023-06-19T06:06:35;20.80;99.90
33741;DHT22;20065;48.380;10.892;2023-06-19T06:09:21;20.90;99.90
33741;DHT22;20065;48.380;10.892;2023-06-19T06:12:08;20.90;99.90
33741;DHT22;20065;48.380;10.892;2023-06-19T06:14:54;20.90;99.90
33741;DHT22;20065;48.380;10.892;2023-06-19T06:17:40;20.90;99.90
33741;DHT22;20065;48.380;10.892;2023-06-19T06:20:26;20.90;99.90
33741;DHT22;20065;48.380;10.892;2023-06-19T06:23:13;21.00;99.90
33741;DHT22;20065;48.380;10.892;2023-06-19T06:26:00;21.00;99.90
33741;DHT22;20065;48.380;10.892;2023-06-19T06:28:51;21.10;99.90
33741;DHT22;20065;48.380;10.892;2023-06-19T06:31:38;21.20;99.90
33741;DHT22;20065;48.380;10.892;2023-06-19T06:34:25;21.30;99.90
33741;DHT22;20065;48.380;10.892;2023-06-19T06:37:11;21.30;99.90
33741;DHT22;20065;48.380;10.892;2023-06-19T06:39:58;21.20;99.90
33741;DHT22;20065;48.380;10.892;2023-06-19T06:42:44;21.20;99.90
33741;DHT22;20065;48.380;10.892;2023-06-19T06:45:30;21.20;99.90
33741;DHT22;20065;48.380;10.892;2023-06-19T06:48:16;21.20;99.90
33741;DHT22;20065;48.380;10.892;2023-06-19T06:51:03;21.20;99.90
33741;DHT22;20065;48.380;10.892;2023-06-19T06:53:50;21.30;99.90
33741;DHT22;20065;48.380;10.892;2023-06-19T06:56:36;21.40;99.90
33741;DHT22;20065;48.380;10.892;2023-06-19T06:59:22;21.30;99.90
33741;DHT22;20065;48.380;10.892;2023-06-19T07:02:09;21.40;99.90
33741;DHT22;20065;48.380;10.892;2023-06-19T07:04:55;21.50;99.90
33741;DHT22;20065;48.380;10.892;2023-06-19T07:07:41;21.40;99.90
33741;DHT22;20065;48.380;10.892;2023-06-19T07:10:27;21.40;99.90
33741;DHT22;20065;48.380;10.892;2023-06-19T07:13:13;21.40;99.90
33741;DHT22;20065;48.380;10.892;2023-06-19T07:16:00;21.50;99.90
33741;DHT22;20065;48.380;10.892;2023-06-19T07:18:47;21.60;99.90
33741;DHT22;20065;48.380;10.892;2023-06-19T07:21:33;21.60;99.90
33741;DHT22;20065;48.380;10.892;2023-06-19T07:24:19;21.70;99.90
33741;DHT22;20065;48.380;10.892;2023-06-19T07:27:06;21.70;99.90
33741;DHT22;20065;48.380;10.892;2023-06-19T07:29:52;21.70;99.90
33741;DHT22;20065;48.380;10.892;2023-06-19T07:32:42;21.70;99.90
33741;DHT22;20065;48.380;10.892;2023-06-19T07:35:28;21.70;99.90
33741;DHT22;20065;48.380;10.892;2023-06-19T07:38:14;21.80;99.90
33741;DHT22;20065;48.380;10.892;2023-06-19T07:41:11;21.80;99.90
33741;DHT22;20065;48.380;10.892;2023-06-19T07:43:57;21.80;99.90
33741;DHT22;20065;48.380;10.892;2023-06-19T07:46:43;21.80;99.90
33741;DHT22;20065;48.380;10.892;2023-06-19T07:49:29;21.80;99.90
33741;DHT22;20065;48.380;10.892;2023-06-19T07:52:15;21.80;99.90
33741;DHT22;20065;48.380;10.892;2023-06-19T07:55:02;21.80;99.90
33741;DHT22;20065;48.380;10.892;2023-06-19T07:57:48;21.80;99.90
33741;DHT22;20065;48.380;10.892;2023-06-19T08:00:35;22.00;99.90
33741;DHT22;20065;48.380;10.892;2023-06-19T08:03:21;21.80;99.90
33741;DHT22;20065;48.380;10.892;2023-06-19T08:06:08;21.80;99.90
33741;DHT22;20065;48.380;10.892;2023-06-19T08:08:54;21.80;99.90
33741;DHT22;20065;48.380;10.892;2023-06-19T08:11:41;21.80;99.90
33741;DHT22;20065;48.380;10.892;2023-06-19T08:14:27;21.80;99.90
33741;DHT22;20065;48.380;10.892;2023-06-19T08:17:14;21.80;99.90
33741;DHT22;20065;48.380;10.892;2023-06-19T08:20:00;21.80;99.90
33741;DHT22;20065;48.380;10.892;2023-06-19T08:22:46;21.80;99.90
33741;DHT22;20065;48.380;10.892;2023-06-19T08:25:32;21.90;99.90
33741;DHT22;20065;48.380;10.892;2023-06-19T08:28:19;22.00;99.90
33741;DHT22;20065;48.380;10.892;2023-06-19T08:31:05;22.00;99.90
33741;DHT22;20065;48.380;10.892;2023-06-19T08:33:51;22.10;99.90
33741;DHT22;20065;48.380;10.892;2023-06-19T08:36:39;22.20;99.90
33741;DHT22;20065;48.380;10.892;2023-06-19T08:39:25;22.30;99.90
33741;DHT22;20065;48.380;10.892;2023-06-19T08:42:12;22.30;99.90
33741;DHT22;20065;48.380;10.892;2023-06-19T08:44:59;22.40;99.90
33741;DHT22;20065;48.380;10.892;2023-06-19T08:47:46;22.50;99.90
33741;DHT22;20065;48.380;10.892;2023-06-19T08:50:33;22.60;99.90
33741;DHT22;20065;48.380;10.892;2023-06-19T08:53:19;22.70;99.90
33741;DHT22;20065;48.380;10.892;2023-06-19T08:56:08;22.70;99.90
33741;DHT22;20065;48.380;10.892;2023-06-19T08:58:55;22.80;99.90
33741;DHT22;20065;48.380;10.892;2023-06-19T09:01:50;22.80;99.90
33741;DHT22;20065;48.380;10.892;2023-06-19T09:04:50;23.00;99.90
33741;DHT22;20065;48.380;10.892;2023-06-19T09:07:36;22.70;99.90
33741;DHT22;20065;48.380;10.892;2023-06-19T09:10:23;22.70;99.90
33741;DHT22;20065;48.380;10.892;2023-06-19T09:13:16;22.70;99.90
33741;DHT22;20065;48.380;10.892;2023-06-19T09:16:07;22.60;99.90
33741;DHT22;20065;48.380;10.892;2023-06-19T09:18:53;22.70;99.90
33741;DHT22;20065;48.380;10.892;2023-06-19T09:22:01;22.60;99.90
33741;DHT22;20065;48.380;10.892;2023-06-19T09:25:02;22.70;99.90
33741;DHT22;20065;48.380;10.892;2023-06-19T09:27:49;22.60;99.90
33741;DHT22;20065;48.380;10.892;2023-06-19T09:30:35;22.70;99.90
33741;DHT22;20065;48.380;10.892;2023-06-19T09:33:22;22.80;99.90
33741;DHT22;20065;48.380;10.892;2023-06-19T09:36:09;22.90;99.90
33741;DHT22;20065;48.380;10.892;2023-06-19T09:38:56;23.00;99.90
33741;DHT22;20065;48.380;10.892;2023-06-19T09:41:45;23.00;99.90
33741;DHT22;20065;48.380;10.892;2023-06-19T09:44:40;23.10;99.90
33741;DHT22;20065;48.380;10.892;2023-06-19T09:47:32;23.20;99.90
33741;DHT22;20065;48.380;10.892;2023-06-19T09:50:22;23.10;99.90
33741;DHT22;20065;48.380;10.892;2023-06-19T09:53:13;23.00;99.90
33741;DHT22;20065;48.380;10.892;2023-06-19T09:56:03;23.10;99.90
33741;DHT22;20065;48.380;10.892;2023-06-19T09:58:51;23.20;99.90
33741;DHT22;20065;48.380;10.892;2023-06-19T10:01:38;23.10;99.90
33741;DHT22;20065;48.380;10.892;2023-06-19T10:04:28;23.00;99.90
33741;DHT22;20065;48.380;10.892;2023-06-19T10:07:16;22.90;99.90
33741;DHT22;20065;48.380;10.892;2023-06-19T10:10:12;22.90;99.90
33741;DHT22;20065;48.380;10.892;2023-06-19T10:13:16;22.90;99.90
33741;DHT22;20065;48.380;10.892;2023-06-19T10:16:06;23.00;99.90
33741;DHT22;20065;48.380;10.892;2023-06-19T10:18:52;23.00;99.90
33741;DHT22;20065;48.380;10.892;2023-06-19T10:21:54;23.00;99.90
33741;DHT22;20065;48.380;10.892;2023-06-19T10:24:49;23.10;99.90
33741;DHT22;20065;48.380;10.892;2023-06-19T10:27:38;23.10;99.90
33741;DHT22;20065;48.380;10.892;2023-06-19T10:30:24;23.20;99.90
33741;DHT22;20065;48.380;10.892;2023-06-19T10:33:11;23.20;99.90
33741;DHT22;20065;48.380;10.892;2023-06-19T10:35:58;23.30;99.90
33741;DHT22;20065;48.380;10.892;2023-06-19T10:38:46;23.50;99.90
33741;DHT22;20065;48.380;10.892;2023-06-19T10:41:35;23.70;99.90
33741;DHT22;20065;48.380;10.892;2023-06-19T10:44:25;23.90;99.90
33741;DHT22;20065;48.380;10.892;2023-06-19T10:47:12;23.90;99.90
33741;DHT22;20065;48.380;10.892;2023-06-19T10:50:00;23.90;99.20
33741;DHT22;20065;48.380;10.892;2023-06-19T10:52:53;23.90;99.90
33741;DHT22;20065;48.380;10.892;2023-06-19T10:56:00;24.00;99.90
33741;DHT22;20065;48.380;10.892;2023-06-19T10:58:46;23.90;99.90
33741;DHT22;20065;48.380;10.892;2023-06-19T11:01:43;24.00;99.90
33741;DHT22;20065;48.380;10.892;2023-06-19T11:04:30;24.30;99.90
33741;DHT22;20065;48.380;10.892;2023-06-19T11:07:16;24.40;99.90
33741;DHT22;20065;48.380;10.892;2023-06-19T11:10:03;24.50;99.90
33741;DHT22;20065;48.380;10.892;2023-06-19T11:12:54;24.50;99.60
33741;DHT22;20065;48.380;10.892;2023-06-19T11:15:41;24.50;99.90
33741;DHT22;20065;48.380;10.892;2023-06-19T11:18:27;24.50;99.80
33741;DHT22;20065;48.380;10.892;2023-06-19T11:21:13;24.50;99.10
33741;DHT22;20065;48.380;10.892;2023-06-19T11:24:00;24.40;99.40
33741;DHT22;20065;48.380;10.892;2023-06-19T11:26:48;24.50;99.80
33741;DHT22;20065;48.380;10.892;2023-06-19T11:29:37;24.60;99.70
33741;DHT22;20065;48.380;10.892;2023-06-19T11:32:29;24.60;98.40
33741;DHT22;20065;48.380;10.892;2023-06-19T11:35:17;24.70;98.20
33741;DHT22;20065;48.380;10.892;2023-06-19T11:38:04;24.80;98.40
33741;DHT22;20065;48.380;10.892;2023-06-19T11:40:53;25.10;98.40
33741;DHT22;20065;48.380;10.892;2023-06-19T11:43:43;25.20;98.30
33741;DHT22;20065;48.380;10.892;2023-06-19T11:46:31;25.20;97.10
33741;DHT22;20065;48.380;10.892;2023-06-19T11:49:18;25.20;98.00
33741;DHT22;20065;48.380;10.892;2023-06-19T11:52:06;25.10;98.00
33741;DHT22;20065;48.380;10.892;2023-06-19T11:54:52;25.20;98.40
33741;DHT22;20065;48.380;10.892;2023-06-19T11:57:39;25.30;98.30
33741;DHT22;20065;48.380;10.892;2023-06-19T12:00:28;25.40;97.90
33741;DHT22;20065;48.380;10.892;2023-06-19T12:03:15;25.40;97.80
33741;DHT22;20065;48.380;10.892;2023-06-19T12:06:02;25.30;97.20
33741;DHT22;20065;48.380;10.892;2023-06-19T12:08:50;25.60;97.40
33741;DHT22;20065;48.380;10.892;2023-06-19T12:11:36;25.90;96.70
33741;DHT22;20065;48.380;10.892;2023-06-19T12:14:22;25.90;97.30
33741;DHT22;20065;48.380;10.892;2023-06-19T12:17:10;25.80;96.20
33741;DHT22;20065;48.380;10.892;2023-06-19T12:19:56;25.80;96.30
33741;DHT22;20065;48.380;10.892;2023-06-19T12:22:42;25.90;96.50
33741;DHT22;20065;48.380;10.892;2023-06-19T12:25:29;25.90;96.30
33741;DHT22;20065;48.380;10.892;2023-06-19T12:28:22;26.10;96.50
33741;DHT22;20065;48.380;10.892;2023-06-19T12:31:09;26.10;95.10
33741;DHT22;20065;48.380;10.892;2023-06-19T12:33:56;26.10;93.90
33741;DHT22;20065;48.380;10.892;2023-06-19T12:36:42;26.20;92.30
33741;DHT22;20065;48.380;10.892;2023-06-19T12:39:31;26.40;91.40
33741;DHT22;20065;48.380;10.892;2023-06-19T12:42:18;26.40;92.90
33741;DHT22;20065;48.380;10.892;2023-06-19T12:45:05;26.40;93.30
33741;DHT22;20065;48.380;10.892;2023-06-19T12:47:51;26.40;93.30
33741;DHT22;20065;48.380;10.892;2023-06-19T12:50:37;26.30;93.00
33741;DHT22;20065;48.380;10.892;2023-06-19T12:53:24;26.40;93.10
33741;DHT22;20065;48.380;10.892;2023-06-19T12:56:14;26.50;92.70
33741;DHT22;20065;48.380;10.892;2023-06-19T12:59:01;26.50;93.90
33741;DHT22;20065;48.380;10.892;2023-06-19T13:01:47;26.50;93.80
33741;DHT22;20065;48.380;10.892;2023-06-19T13:04:33;26.60;93.10
33741;DHT22;20065;48.380;10.892;2023-06-19T13:07:20;26.60;93.60
33741;DHT22;20065;48.380;10.892;2023-06-19T13:10:06;26.60;93.70
33741;DHT22;20065;48.380;10.892;2023-06-19T13:12:52;26.60;93.40
33741;DHT22;20065;48.380;10.892;2023-06-19T13:15:39;26.70;93.60
33741;DHT22;20065;48.380;10.892;2023-06-19T13:18:25;26.60;93.20
33741;DHT22;20065;48.380;10.892;2023-06-19T13:21:11;26.70;93.90
33741;DHT22;20065;48.380;10.892;2023-06-19T13:23:58;26.70;94.00
33741;DHT22;20065;48.380;10.892;2023-06-19T13:26:44;26.70;93.20
33741;DHT22;20065;48.380;10.892;2023-06-19T13:29:31;26.70;93.40
33741;DHT22;20065;48.380;10.892;2023-06-19T13:32:17;26.70;93.50
33741;DHT22;20065;48.380;10.892;2023-06-19T13:35:07;26.80;93.40
33741;DHT22;20065;48.380;10.892;2023-06-19T13:37:53;26.80;93.10
33741;DHT22;20065;48.380;10.892;2023-06-19T13:40:39;26.90;92.30
33741;DHT22;20065;48.380;10.892;2023-06-19T13:43:26;26.90;92.50
33741;DHT22;20065;48.380;10.892;2023-06-19T13:46:12;27.10;92.20
33741;DHT22;20065;48.380;10.892;2023-06-19T13:48:59;27.10;92.50
33741;DHT22;20065;48.380;10.892;2023-06-19T13:51:45;27.10;93.10
33741;DHT22;20065;48.380;10.892;2023-06-19T13:54:31;27.20;91.80
33741;DHT22;20065;48.380;10.892;2023-06-19T13:57:17;27.30;91.60
33741;DHT22;20065;48.380;10.892;2023-06-19T14:00:29;27.30;92.50
33741;DHT22;20065;48.380;10.892;2023-06-19T14:03:15;27.40;92.50
33741;DHT22;20065;48.380;10.892;2023-06-19T14:06:02;27.30;92.40
33741;DHT22;20065;48.380;10.892;2023-06-19T14:08:48;27.40;91.50
33741;DHT22;20065;48.380;10.892;2023-06-19T14:11:34;27.30;91.10
33741;DHT22;20065;48.380;10.892;2023-06-19T14:14:20;27.40;90.70
33741;DHT22;20065;48.380;10.892;2023-06-19T14:17:07;27.40;91.30
33741;DHT22;20065;48.380;10.892;2023-06-19T14:19:53;27.60;91.30
33741;DHT22;20065;48.380;10.892;2023-06-19T14:22:41;27.60;91.20
33741;DHT22;20065;48.380;10.892;2023-06-19T14:25:27;27.60;91.90
33741;DHT22;20065;48.380;10.892;2023-06-19T14:28:15;27.60;92.30
33741;DHT22;20065;48.380;10.892;2023-06-19T14:31:01;27.60;91.80
33741;DHT22;20065;48.380;10.892;2023-06-19T14:33:48;27.70;92.50
33741;DHT22;20065;48.380;10.892;2023-06-19T14:36:34;27.70;92.50
33741;DHT22;20065;48.380;10.892;2023-06-19T14:39:20;27.60;92.20
33741;DHT22;20065;48.380;10.892;2023-06-19T14:42:06;27.70;92.40
33741;DHT22;20065;48.380;10.892;2023-06-19T14:44:53;27.70;91.70
33741;DHT22;20065;48.380;10.892;2023-06-19T14:47:39;27.70;92.30
33741;DHT22;20065;48.380;10.892;2023-06-19T14:50:25;27.70;91.90
33741;DHT22;20065;48.380;10.892;2023-06-19T14:53:11;27.70;91.50
33741;DHT22;20065;48.380;10.892;2023-06-19T14:55:58;27.70;90.90
33741;DHT22;20065;48.380;10.892;2023-06-19T14:58:44;27.80;90.80
33741;DHT22;20065;48.380;10.892;2023-06-19T15:01:30;27.80;91.40
33741;DHT22;20065;48.380;10.892;2023-06-19T15:04:16;27.80;91.10
33741;DHT22;20065;48.380;10.892;2023-06-19T15:07:06;27.70;91.90
33741;DHT22;20065;48.380;10.892;2023-06-19T15:09:52;27.60;92.10
33741;DHT22;20065;48.380;10.892;2023-06-19T15:12:38;27.70;92.20
33741;DHT22;20065;48.380;10.892;2023-06-19T15:15:24;27.70;92.90
33741;DHT22;20065;48.380;10.892;2023-06-19T15:18:11;27.60;92.90
33741;DHT22;20065;48.380;10.892;2023-06-19T15:20:57;27.60;93.30
33741;DHT22;20065;48.380;10.892;2023-06-19T15:23:43;27.60;93.10
33741;DHT22;20065;48.380;10.892;2023-06-19T15:26:29;27.60;93.50
33741;DHT22;20065;48.380;10.892;2023-06-19T15:29:16;27.50;93.50
33741;DHT22;20065;48.380;10.892;2023-06-19T15:32:02;27.50;93.10
33741;DHT22;20065;48.380;10.892;2023-06-19T15:34:48;27.50;93.40
33741;DHT22;20065;48.380;10.892;2023-06-19T15:37:35;27.50;93.40
33741;DHT22;20065;48.380;10.892;2023-06-19T15:40:21;27.50;93.00
33741;DHT22;20065;48.380;10.892;2023-06-19T15:43:07;27.40;94.30
33741;DHT22;20065;48.380;10.892;2023-06-19T15:45:54;27.10;92.90
33741;DHT22;20065;48.380;10.892;2023-06-19T15:52:49;27.30;92.60
33741;DHT22;20065;48.380;10.892;2023-06-19T15:55:35;27.30;94.10
33741;DHT22;20065;48.380;10.892;2023-06-19T15:58:22;27.20;94.20
33741;DHT22;20065;48.380;10.892;2023-06-19T16:01:08;27.20;93.90
33741;DHT22;20065;48.380;10.892;2023-06-19T16:03:55;27.20;93.90
33741;DHT22;20065;48.380;10.892;2023-06-19T16:06:41;27.20;93.60
33741;DHT22;20065;48.380;10.892;2023-06-19T16:09:28;27.20;94.20
33741;DHT22;20065;48.380;10.892;2023-06-19T16:12:15;27.10;93.70
33741;DHT22;20065;48.380;10.892;2023-06-19T16:15:01;27.10;94.00
33741;DHT22;20065;48.380;10.892;2023-06-19T16:17:47;27.00;94.00
33741;DHT22;20065;48.380;10.892;2023-06-19T16:20:34;27.00;93.70
33741;DHT22;20065;48.380;10.892;2023-06-19T16:23:20;27.00;94.10
33741;DHT22;20065;48.380;10.892;2023-06-19T16:26:06;27.00;93.20
33741;DHT22;20065;48.380;10.892;2023-06-19T16:28:53;27.00;93.70
33741;DHT22;20065;48.380;10.892;2023-06-19T16:31:39;27.00;93.80
33741;DHT22;20065;48.380;10.892;2023-06-19T16:34:26;26.90;93.90
33741;DHT22;20065;48.380;10.892;2023-06-19T16:37:12;26.80;94.30
33741;DHT22;20065;48.380;10.892;2023-06-19T16:39:58;26.80;94.60
33741;DHT22;20065;48.380;10.892;2023-06-19T16:42:48;26.70;94.50
33741;DHT22;20065;48.380;10.892;2023-06-19T16:45:34;26.70;93.90
33741;DHT22;20065;48.380;10.892;2023-06-19T16:48:21;26.70;93.90
33741;DHT22;20065;48.380;10.892;2023-06-19T16:51:07;26.60;94.00
33741;DHT22;20065;48.380;10.892;2023-06-19T16:53:53;26.60;94.20
33741;DHT22;20065;48.380;10.892;2023-06-19T16:56:40;26.60;94.20
33741;DHT22;20065;48.380;10.892;2023-06-19T16:59:28;26.60;94.70
33741;DHT22;20065;48.380;10.892;2023-06-19T17:02:14;26.60;95.10
33741;DHT22;20065;48.380;10.892;2023-06-19T17:05:00;26.60;95.00
33741;DHT22;20065;48.380;10.892;2023-06-19T17:07:47;26.50;94.80
33741;DHT22;20065;48.380;10.892;2023-06-19T17:10:33;26.50;94.70
33741;DHT22;20065;48.380;10.892;2023-06-19T17:13:20;26.40;95.00
33741;DHT22;20065;48.380;10.892;2023-06-19T17:16:07;26.40;95.40
33741;DHT22;20065;48.380;10.892;2023-06-19T17:18:53;26.30;95.60
33741;DHT22;20065;48.380;10.892;2023-06-19T17:21:39;26.30;95.60
33741;DHT22;20065;48.380;10.892;2023-06-19T17:24:25;26.30;96.10
33741;DHT22;20065;48.380;10.892;2023-06-19T17:27:12;26.30;96.40
33741;DHT22;20065;48.380;10.892;2023-06-19T17:29:58;26.20;96.00
33741;DHT22;20065;48.380;10.892;2023-06-19T17:32:44;26.20;95.80